Time;durP1;ratioP1;P1;durP2;ratioP2;P2;SDS_P1;SDS_P2;PMS_P1;PMS_P2;Temp;Humidity;BMP_temperature;BMP_pressure;BME280_temperature;BME280_humidity;BME280_pressure;Samples;Min_cycle;Max_cycle;Signal;HPM_P1;HPM_P2
2022/10/07 00:00:29;;;;;;;;;;;;;;;;;;5049742;28;19927;-57
2022/10/07 00:02:55;;;;;;;;;;;;;;;;;;5050554;28;19928;-57
2022/10/07 00:05:21;;;;;;;;;;;;;;;;;;5050582;28;19928;-57
2022/10/07 00:07:47;;;;;;;;;;;;;;;;;;5050531;28;19921;-58
2022/10/07 00:10:13;;;;;;;;;;;;;;;;;;5050100;28;20362;-57
2022/10/07 00:12:39;;;;;;;;;;;;;;;;;;5050633;28;20015;-57
2022/10/07 00:15:05;;;;;;;;;;;;;;;;;;5049227;28;19967;-57
2022/10/07 00:17:31;;;;;;;;;;;;;;;;;;5049699;28;19921;-57
2022/10/07 00:19:57;;;;;;;;;;;;;;;;;;5049754;28;20290;-58
2022/10/07 00:22:23;;;;;;;;;;;;;;;;;;5050481;28;20358;-57
2022/10/07 00:24:49;;;;;;;;;;;;;;;;;;5049642;28;19960;-58
2022/10/07 00:27:15;;;;;;;;;;;;;;;;;;5049469;28;19978;-56
2022/10/07 00:29:41;;;;;;;;;;;;;;;;;;5049129;28;19921;-57
2022/10/07 00:32:07;;;;;;;;;;;;;;;;;;5049802;28;19921;-56
2022/10/07 00:34:33;;;;;;;;;;;;;;;;;;5049964;28;19924;-57
2022/10/07 00:36:59;;;;;;;;;;;;;;;;;;5049123;28;19964;-58
2022/10/07 00:39:25;;;;;;;;;;;;;;;;;;5047590;28;19987;-58
2022/10/07 00:41:51;;;;;;;;;;;;;;;;;;5050366;28;20007;-57
2022/10/07 00:44:17;;;;;;;;;;;;;;;;;;5048844;28;19978;-57
2022/10/07 00:46:43;;;;;;;;;;;;;;;;;;5049871;28;20362;-57
2022/10/07 00:49:09;;;;;;;;;;;;;;;;;;5049174;28;19971;-58
2022/10/07 00:51:35;;;;;;;;;;;;;;;;;;5049864;28;19921;-57
2022/10/07 00:54:01;;;;;;;;;;;;;;;;;;5048407;28;19928;-58
2022/10/07 00:56:28;;;;;;;;;;;;;;;;;;5049401;28;20270;-58
2022/10/07 00:58:54;;;;;;;;;;;;;;;;;;5049203;28;19921;-58
2022/10/07 01:01:20;;;;;;;;;;;;;;;;;;5048912;28;19920;-57
2022/10/07 01:03:46;;;;;;;;;;;;;;;;;;5049467;28;19929;-57
2022/10/07 01:06:12;;;;;;;;;;;;;;;;;;5048989;28;20362;-58
2022/10/07 01:08:39;;;;;;;;;;;;;;;;;;5048639;28;19920;-58
2022/10/07 01:11:12;;;;;;;;;;;;;;;;;;5049157;28;19921;-57
2022/10/07 01:13:38;;;;;;;;;;;;;;;;;;5048420;28;19921;-57
2022/10/07 01:16:04;;;;;;;;;;;;;;;;;;5094187;22;19925;-58
2022/10/07 01:18:30;;;;;;;;;;;;;;;;;;5028972;28;20362;-57
2022/10/07 01:20:56;;;;;;;;;;;;;;;;;;5029166;28;20016;-59
2022/10/07 01:23:22;;;;;;;;;;;;;;;;;;5027400;28;19921;-57
2022/10/07 01:25:48;;;;;;;;;;;;;;;;;;5029116;28;19925;-57
2022/10/07 01:28:14;;;;;;;;;;;;;;;;;;5028671;28;20520;-57
2022/10/07 01:30:40;;;;;;;;;;;;;;;;;;5028520;28;19944;-57
2022/10/07 01:33:06;;;;;;;;;;;;;;;;;;5028472;28;19978;-58
2022/10/07 01:35:34;;;;;;;;;;;;;;;;;;5028572;28;19925;-58
2022/10/07 01:38:00;;;;;;;;;;;;;;;;;;5010796;28;19928;-57
2022/10/07 01:40:26;;;;;;;;;;;;;;;;;;5029156;28;19928;-58
2022/10/07 01:42:52;;;;;;;;;;;;;;;;;;5029096;28;19921;-57
2022/10/07 01:45:20;;;;;;;;;;;;;;;;;;5027808;28;19975;-57
2022/10/07 01:47:46;;;;;;;;;;;;;;;;;;5028595;28;20039;-57
2022/10/07 01:50:12;;;;;;;;;;;;;;;;;;5027863;28;20470;-58
2022/10/07 01:52:39;;;;;;;;;;;;;;;;;;5028511;28;19921;-57
2022/10/07 01:55:06;;;;;;;;;;;;;;;;;;5010475;28;20317;-58
2022/10/07 01:57:32;;;;;;;;;;;;;;;;;;5026112;28;19932;-57
2022/10/07 01:59:58;;;;;;;;;;;;;;;;;;5027260;28;19921;-57
2022/10/07 02:02:23;;;;;;;;;;;;;;;;;;5028933;28;19920;-57
2022/10/07 02:04:50;;;;;;;;;;;;;;;;;;5010473;28;19921;-58
2022/10/07 02:07:16;;;;;;;;;;;;;;;;;;5027994;28;20380;-57
2022/10/07 02:09:42;;;;;;;;;;;;;;;;;;5028461;28;20374;-57
2022/10/07 02:12:08;;;;;;;;;;;;;;;;;;5028169;28;19967;-57
2022/10/07 02:14:35;;;;;;;;;;;;;;;;;;5027599;28;20378;-57
2022/10/07 02:17:01;;;;;;;;;;;;;;;;;;5028284;28;19921;-58
2022/10/07 02:19:27;;;;;;;;;;;;;;;;;;5028162;28;20765;-58
2022/10/07 02:21:53;;;;;;;;;;;;;;;;;;5028432;28;19921;-57
2022/10/07 02:24:19;;;;;;;;;;;;;;;;;;5027799;28;19921;-56
2022/10/07 02:26:45;;;;;;;;;;;;;;;;;;5027946;28;20011;-58
2022/10/07 02:29:11;;;;;;;;;;;;;;;;;;5026924;28;19990;-57
2022/10/07 02:31:40;;;;;;;;;;;;;;;;;;5025677;28;19921;-57
2022/10/07 02:34:06;;;;;;;;;;;;;;;;;;5026820;28;19927;-58
2022/10/07 02:36:32;;;;;;;;;;;;;;;;;;5028288;28;19920;-57
2022/10/07 02:39:00;;;;;;;;;;;;;;;;;;5027582;28;19974;-58
2022/10/07 02:41:30;;;;;;;;;;;;;;;;;;5027997;28;20346;-57
2022/10/07 02:43:56;;;;;;;;;;;;;;;;;;5026998;28;19936;-59
2022/10/07 02:46:22;;;;;;;;;;;;;;;;;;5028052;28;19917;-57
2022/10/07 02:48:48;;;;;;;;;;;;;;;;;;5027500;28;20393;-57
2022/10/07 02:51:17;;;;;;;;;;;;;;;;;;5027280;28;20055;-57
2022/10/07 02:53:43;;;;;;;;;;;;;;;;;;5027757;28;20382;-57
2022/10/07 02:56:09;;;;;;;;;;;;;;;;;;5027336;28;19921;-57
2022/10/07 02:58:35;;;;;;;;;;;;;;;;;;5027729;28;19921;-57
2022/10/07 03:01:01;;;;;;;;;;;;;;;;;;5026627;28;19921;-57
2022/10/07 03:03:27;;;;;;;;;;;;;;;;;;5027341;28;19921;-57
2022/10/07 03:05:53;;;;;;;;;;;;;;;;;;5028199;28;19923;-57
2022/10/07 03:08:20;;;;;;;;;;;;;;;;;;5027001;28;20309;-57
2022/10/07 03:10:46;;;;;;;;;;;;;;;;;;5027661;28;20459;-58
2022/10/07 03:13:14;;;;;;;;;;;;;;;;;;5027174;28;19929;-56
2022/10/07 03:15:40;;;;;;;;;;;;;;;;;;5005423;28;20016;-58
2022/10/07 03:18:06;;;;;;;;;;;;;;;;;;5006102;28;19928;-57
2022/10/07 03:20:32;;;;;;;;;;;;;;;;;;5007283;28;19922;-57
2022/10/07 03:22:58;;;;;;;;;;;;;;;;;;5006912;28;19944;-58
2022/10/07 03:25:25;;;;;;;;;;;;;;;;;;5008031;28;19929;-58
2022/10/07 03:27:52;;;;;;;;;;;;;;;;;;5007898;28;19928;-57
2022/10/07 03:30:21;;;;;;;;;;;;;;;;;;5006605;28;20000;-57
2022/10/07 03:32:48;;;;;;;;;;;;;;;;;;5007548;28;19925;-57
2022/10/07 03:35:14;;;;;;;;;;;;;;;;;;5007267;28;19971;-57
2022/10/07 03:37:40;;;;;;;;;;;;;;;;;;5007150;28;19957;-57
2022/10/07 03:40:06;;;;;;;;;;;;;;;;;;5007240;28;20543;-58
2022/10/07 03:42:32;;;;;;;;;;;;;;;;;;5007406;28;19922;-57
2022/10/07 03:44:58;;;;;;;;;;;;;;;;;;5005998;28;20326;-58
2022/10/07 03:47:26;;;;;;;;;;;;;;;;;;5008047;28;20359;-57
2022/10/07 03:49:52;;;;;;;;;;;;;;;;;;5007507;28;19921;-57
2022/10/07 03:52:18;;;;;;;;;;;;;;;;;;5007312;28;19922;-58
2022/10/07 03:54:44;;;;;;;;;;;;;;;;;;5007404;28;19929;-57
2022/10/07 03:59:54;;;;;;;;;;;;;;;;;;5006567;28;20355;-58
2022/10/07 04:02:22;;;;;;;;;;;;;;;;;;5007067;28;19929;-57
2022/10/07 04:04:51;;;;;;;;;;;;;;;;;;5007617;28;19957;-57
2022/10/07 04:07:17;;;;;;;;;;;;;;;;;;5006743;28;19931;-57
2022/10/07 04:09:43;;;;;;;;;;;;;;;;;;5006676;28;19921;-57
2022/10/07 04:12:09;;;;;;;;;;;;;;;;;;5005569;28;19921;-57
2022/10/07 04:14:35;;;;;;;;;;;;;;;;;;5010500;28;19974;-57
2022/10/07 04:17:01;;;;;;;;;;;;;;;;;;5026964;28;19928;-57
2022/10/07 04:19:27;;;;;;;;;;;;;;;;;;5026905;28;19921;-57
2022/10/07 04:21:53;;;;;;;;;;;;;;;;;;5027216;28;19960;-56
2022/10/07 04:24:19;;;;;;;;;;;;;;;;;;5026434;28;19928;-56
2022/10/07 04:26:45;;;;;;;;;;;;;;;;;;5026670;28;19929;-56
2022/10/07 04:29:11;;;;;;;;;;;;;;;;;;5028186;28;19921;-58
2022/10/07 04:31:37;;;;;;;;;;;;;;;;;;5030425;28;20027;-57
2022/10/07 04:34:03;;;;;;;;;;;;;;;;;;5030409;28;19921;-57
2022/10/07 04:36:29;;;;;;;;;;;;;;;;;;5030151;28;19925;-57
2022/10/07 04:38:55;;;;;;;;;;;;;;;;;;5030442;28;19971;-57
2022/10/07 04:41:21;;;;;;;;;;;;;;;;;;5029979;28;19928;-57
2022/10/07 04:43:47;;;;;;;;;;;;;;;;;;5029519;28;20390;-57
2022/10/07 04:46:13;;;;;;;;;;;;;;;;;;5029736;28;19920;-58
2022/10/07 04:48:40;;;;;;;;;;;;;;;;;;5029712;28;19928;-58
2022/10/07 04:51:06;;;;;;;;;;;;;;;;;;5012199;28;20381;-56
2022/10/07 04:53:32;;;;;;;;;;;;;;;;;;5029759;28;19917;-58
2022/10/07 04:55:59;;;;;;;;;;;;;;;;;;5011856;28;19921;-58
2022/10/07 04:58:25;;;;;;;;;;;;;;;;;;5030089;28;20420;-58
2022/10/07 05:00:51;;;;;;;;;;;;;;;;;;5029291;28;20274;-57
2022/10/07 05:03:17;;;;;;;;;;;;;;;;;;5029609;28;20389;-57
2022/10/07 05:05:43;;;;;;;;;;;;;;;;;;5029410;28;19917;-58
2022/10/07 05:08:09;;;;;;;;;;;;;;;;;;5029590;28;19921;-57
2022/10/07 05:10:36;;;;;;;;;;;;;;;;;;5029748;28;20561;-57
2022/10/07 05:13:02;;;;;;;;;;;;;;;;;;5029288;28;19925;-57
2022/10/07 05:15:28;;;;;;;;;;;;;;;;;;5028398;28;19975;-57
2022/10/07 05:17:54;;;;;;;;;;;;;;;;;;5028099;28;19929;-58
2022/10/07 05:20:20;;;;;;;;;;;;;;;;;;5029851;28;19921;-58
2022/10/07 05:22:46;;;;;;;;;;;;;;;;;;5029771;28;20310;-58
2022/10/07 05:25:12;;;;;;;;;;;;;;;;;;5029672;28;19928;-58
2022/10/07 05:27:39;;;;;;;;;;;;;;;;;;5029050;28;19921;-57
2022/10/07 05:30:05;;;;;;;;;;;;;;;;;;5029028;28;19921;-57
2022/10/07 05:32:31;;;;;;;;;;;;;;;;;;5011648;28;19921;-58
2022/10/07 05:34:57;;;;;;;;;;;;;;;;;;5029167;28;19963;-58
2022/10/07 05:37:23;;;;;;;;;;;;;;;;;;5029423;28;20072;-58
2022/10/07 05:39:50;;;;;;;;;;;;;;;;;;5027590;28;19921;-57
2022/10/07 05:42:16;;;;;;;;;;;;;;;;;;5027608;28;19924;-57
2022/10/07 05:44:42;;;;;;;;;;;;;;;;;;5028160;28;19921;-58
2022/10/07 05:47:08;;;;;;;;;;;;;;;;;;5027414;28;19929;-58
2022/10/07 05:49:34;;;;;;;;;;;;;;;;;;5028710;28;20409;-58
2022/10/07 05:52:01;;;;;;;;;;;;;;;;;;5028489;28;19937;-57
2022/10/07 05:54:27;;;;;;;;;;;;;;;;;;5028215;28;19921;-59
2022/10/07 05:56:53;;;;;;;;;;;;;;;;;;5028948;28;19928;-58
2022/10/07 05:59:19;;;;;;;;;;;;;;;;;;5027125;28;20004;-58
2022/10/07 06:01:45;;;;;;;;;;;;;;;;;;5028224;28;20335;-58
2022/10/07 06:04:12;;;;;;;;;;;;;;;;;;5027815;28;20358;-58
2022/10/07 06:06:38;;;;;;;;;;;;;;;;;;5028286;28;20260;-58
2022/10/07 06:14:33;;;;;;;;;;;;;;;;;;5027131;28;20342;-57
2022/10/07 06:16:59;;;;;;;;;;;;;;;;;;5027851;28;20362;-58
2022/10/07 06:19:25;;;;;;;;;;;;;;;;;;5028114;28;19928;-57
2022/10/07 06:21:51;;;;;;;;;;;;;;;;;;5028500;28;19929;-58
2022/10/07 06:24:18;;;;;;;;;;;;;;;;;;5027893;28;19928;-57
2022/10/07 06:26:44;;;;;;;;;;;;;;;;;;5027950;28;19956;-57
2022/10/07 06:29:10;;;;;;;;;;;;;;;;;;5027128;28;19979;-57
2022/10/07 06:31:36;;;;;;;;;;;;;;;;;;5028201;28;19943;-57
2022/10/07 06:34:02;;;;;;;;;;;;;;;;;;5027710;28;19921;-57
2022/10/07 06:36:28;;;;;;;;;;;;;;;;;;5027951;28;19974;-57
2022/10/07 06:38:54;;;;;;;;;;;;;;;;;;5028031;28;21725;-58
2022/10/07 06:41:20;;;;;;;;;;;;;;;;;;5026931;28;19921;-58
2022/10/07 06:43:46;;;;;;;;;;;;;;;;;;5026967;28;19924;-57
2022/10/07 06:46:12;;;;;;;;;;;;;;;;;;5027581;28;19924;-57
2022/10/07 06:48:39;;;;;;;;;;;;;;;;;;5027600;28;20362;-58
2022/10/07 06:51:05;;;;;;;;;;;;;;;;;;5026851;28;19928;-58
2022/10/07 06:53:31;;;;;;;;;;;;;;;;;;5027335;28;19917;-58
2022/10/07 06:55:57;;;;;;;;;;;;;;;;;;5027408;28;19921;-59
2022/10/07 06:58:23;;;;;;;;;;;;;;;;;;5027049;28;19917;-57
2022/10/07 07:00:49;;;;;;;;;;;;;;;;;;5027109;28;20437;-56
2022/10/07 07:03:15;;;;;;;;;;;;;;;;;;5027435;28;20027;-57
2022/10/07 07:05:41;;;;;;;;;;;;;;;;;;5027419;28;19924;-57
2022/10/07 07:08:07;;;;;;;;;;;;;;;;;;5026051;28;20401;-58
2022/10/07 07:10:33;;;;;;;;;;;;;;;;;;5027493;28;19917;-57
2022/10/07 07:12:59;;;;;;;;;;;;;;;;;;5026950;28;19929;-58
2022/10/07 07:15:26;;;;;;;;;;;;;;;;;;5026777;28;19921;-57
2022/10/07 07:17:52;;;;;;;;;;;;;;;;;;5027527;28;19921;-57
2022/10/07 07:20:17;;;;;;;;;;;;;;;;;;5026990;28;19932;-58
2022/10/07 07:22:43;;;;;;;;;;;;;;;;;;5027594;28;19987;-57
2022/10/07 07:25:10;;;;;;;;;;;;;;;;;;5027092;28;20009;-57
2022/10/07 07:27:36;;;;;;;;;;;;;;;;;;5027081;28;19983;-57
2022/10/07 07:30:02;;;;;;;;;;;;;;;;;;5026282;28;19921;-58
2022/10/07 07:32:29;;;;;;;;;;;;;;;;;;5027272;28;19968;-56
2022/10/07 07:34:55;;;;;;;;;;;;;;;;;;5027810;28;19921;-58
2022/10/07 07:37:21;;;;;;;;;;;;;;;;;;5026734;28;19924;-57
2022/10/07 07:39:47;;;;;;;;;;;;;;;;;;5027030;28;19988;-57
2022/10/07 07:42:13;;;;;;;;;;;;;;;;;;5026895;28;19983;-57
2022/10/07 07:44:39;;;;;;;;;;;;;;;;;;5026216;28;20367;-57
2022/10/07 07:47:05;;;;;;;;;;;;;;;;;;5027075;28;19932;-57
2022/10/07 07:49:32;;;;;;;;;;;;;;;;;;5027241;28;19940;-57
2022/10/07 07:51:58;;;;;;;;;;;;;;;;;;5026822;28;19944;-57
2022/10/07 07:54:26;;;;;;;;;;;;;;;;;;5027402;28;20271;-57
2022/10/07 07:56:52;;;;;;;;;;;;;;;;;;5027255;28;19921;-56
2022/10/07 07:59:18;;;;;;;;;;;;;;;;;;5025839;28;20016;-57
2022/10/07 08:01:44;;;;;;;;;;;;;;;;;;5027697;28;19921;-57
2022/10/07 08:04:10;;;;;;;;;;;;;;;;;;5030605;28;19921;-57
2022/10/07 08:06:36;;;;;;;;;;;;;;;;;;5030736;28;19920;-57
2022/10/07 08:09:02;;;;;;;;;;;;;;;;;;5030112;28;20629;-57
2022/10/07 08:11:28;;;;;;;;;;;;;;;;;;5030622;28;19927;-57
2022/10/07 08:13:55;;;;;;;;;;;;;;;;;;5029623;28;19921;-57
2022/10/07 08:16:21;;;;;;;;;;;;;;;;;;5029706;28;19921;-57
2022/10/07 08:18:47;;;;;;;;;;;;;;;;;;5030327;28;19975;-57
2022/10/07 08:21:13;;;;;;;;;;;;;;;;;;5030376;28;19921;-57
2022/10/07 08:23:39;;;;;;;;;;;;;;;;;;5030509;28;20023;-57
2022/10/07 08:26:05;;;;;;;;;;;;;;;;;;5029554;28;19970;-58
2022/10/07 08:28:31;;;;;;;;;;;;;;;;;;5030030;28;19929;-58
2022/10/07 08:30:57;;;;;;;;;;;;;;;;;;5030069;28;19928;-58
2022/10/07 08:33:23;;;;;;;;;;;;;;;;;;5029948;28;20052;-58
2022/10/07 08:35:49;;;;;;;;;;;;;;;;;;5030156;28;19921;-57
2022/10/07 08:38:15;;;;;;;;;;;;;;;;;;5029831;28;19917;-58
2022/10/07 08:40:41;;;;;;;;;;;;;;;;;;5029811;28;20029;-57
2022/10/07 08:43:07;;;;;;;;;;;;;;;;;;5029366;28;19960;-58
2022/10/07 08:45:33;;;;;;;;;;;;;;;;;;5030009;28;20366;-57
2022/10/07 08:47:59;;;;;;;;;;;;;;;;;;5029812;28;19921;-57
2022/10/07 08:50:27;;;;;;;;;;;;;;;;;;5026516;28;19925;-57
2022/10/07 08:52:53;;;;;;;;;;;;;;;;;;5029959;28;19921;-57
2022/10/07 08:55:19;;;;;;;;;;;;;;;;;;5029481;28;19983;-58
2022/10/07 08:57:45;;;;;;;;;;;;;;;;;;5029936;28;19956;-57
2022/10/07 09:00:11;;;;;;;;;;;;;;;;;;5028637;28;19960;-57
2022/10/07 09:02:37;;;;;;;;;;;;;;;;;;5029863;28;20000;-57
2022/10/07 09:05:05;;;;;;;;;;;;;;;;;;5029522;28;19982;-58
2022/10/07 09:07:31;;;;;;;;;;;;;;;;;;5029282;28;20441;-57
2022/10/07 09:09:57;;;;;;;;;;;;;;;;;;5028843;28;19921;-56
2022/10/07 09:12:23;;;;;;;;;;;;;;;;;;5030141;28;20647;-57
2022/10/07 09:14:49;;;;;;;;;;;;;;;;;;5027756;28;19921;-58
2022/10/07 09:17:15;;;;;;;;;;;;;;;;;;5029249;28;19928;-58
2022/10/07 09:19:41;;;;;;;;;;;;;;;;;;5029707;28;19921;-58
2022/10/07 09:22:07;;;;;;;;;;;;;;;;;;5028897;28;19929;-58
2022/10/07 09:24:33;;;;;;;;;;;;;;;;;;5028894;28;20331;-57
2022/10/07 09:26:59;;;;;;;;;;;;;;;;;;5029011;28;19921;-57
2022/10/07 09:29:25;;;;;;;;;;;;;;;;;;5028577;28;20259;-57
2022/10/07 09:31:52;;;;;;;;;;;;;;;;;;5029404;28;19959;-57
2022/10/07 09:34:18;;;;;;;;;;;;;;;;;;5028450;28;19928;-58
2022/10/07 09:36:44;;;;;;;;;;;;;;;;;;5029088;28;19964;-57
2022/10/07 09:39:10;;;;;;;;;;;;;;;;;;5028516;28;19983;-57
2022/10/07 09:41:37;;;;;;;;;;;;;;;;;;5028695;28;19988;-57
2022/10/07 09:44:03;;;;;;;;;;;;;;;;;;5028261;28;19921;-57
2022/10/07 09:46:30;;;;;;;;;;;;;;;;;;5028782;28;20011;-58
2022/10/07 09:48:56;;;;;;;;;;;;;;;;;;5029091;28;20015;-57
2022/10/07 09:51:25;;;;;;;;;;;;;;;;;;5029120;28;20007;-58
2022/10/07 09:53:51;;;;;;;;;;;;;;;;;;5028816;28;19975;-57
2022/10/07 09:56:17;;;;;;;;;;;;;;;;;;5028731;28;19968;-57
2022/10/07 09:58:43;;;;;;;;;;;;;;;;;;5027970;28;19917;-57
2022/10/07 10:01:09;;;;;;;;;;;;;;;;;;5028276;28;19920;-57
2022/10/07 10:03:36;;;;;;;;;;;;;;;;;;5028846;28;19929;-57
2022/10/07 10:06:02;;;;;;;;;;;;;;;;;;5027924;28;19964;-57
2022/10/07 10:08:28;;;;;;;;;;;;;;;;;;5028396;28;19955;-57
2022/10/07 10:10:54;;;;;;;;;;;;;;;;;;5028661;28;20347;-57
2022/10/07 10:13:20;;;;;;;;;;;;;;;;;;5027387;28;19964;-57
2022/10/07 10:15:46;;;;;;;;;;;;;;;;;;5027587;28;19983;-57
2022/10/07 10:18:12;;;;;;;;;;;;;;;;;;5027874;28;19990;-56
2022/10/07 10:20:42;;;;;;;;;;;;;;;;;;5028262;28;19921;-57
2022/10/07 10:23:08;;;;;;;;;;;;;;;;;;5027691;28;19941;-57
2022/10/07 10:28:18;;;;;;;;;;;;;;;;;;5027282;28;20444;-57
2022/10/07 10:30:46;;;;;;;;;;;;;;;;;;5028158;28;19920;-58
2022/10/07 10:33:12;;;;;;;;;;;;;;;;;;5028012;28;19978;-58
2022/10/07 10:35:38;;;;;;;;;;;;;;;;;;5028084;28;20653;-57
2022/10/07 10:38:04;;;;;;;;;;;;;;;;;;5027488;28;19921;-57
2022/10/07 10:40:30;;;;;;;;;;;;;;;;;;5027810;28;20000;-58
2022/10/07 10:42:56;;;;;;;;;;;;;;;;;;5027158;28;20445;-58
2022/10/07 10:45:23;;;;;;;;;;;;;;;;;;5028030;28;19929;-58
2022/10/07 10:47:49;;;;;;;;;;;;;;;;;;5027897;28;19966;-57
2022/10/07 10:50:16;;;;;;;;;;;;;;;;;;5027520;28;20414;-58
2022/10/07 10:52:43;;;;;;;;;;;;;;;;;;5027787;28;19921;-57
2022/10/07 10:55:11;;;;;;;;;;;;;;;;;;5026762;28;20354;-57
2022/10/07 10:57:37;;;;;;;;;;;;;;;;;;5026732;28;20279;-57
2022/10/07 11:00:04;;;;;;;;;;;;;;;;;;5027619;28;20404;-58
2022/10/07 11:02:30;;;;;;;;;;;;;;;;;;5027894;28;20391;-57
2022/10/07 11:04:56;;;;;;;;;;;;;;;;;;5027181;28;19932;-58
2022/10/07 11:07:22;;;;;;;;;;;;;;;;;;5027814;28;20004;-57
2022/10/07 11:09:48;;;;;;;;;;;;;;;;;;5027608;28;19996;-58
2022/10/07 11:12:14;;;;;;;;;;;;;;;;;;5026658;28;19929;-58
2022/10/07 11:14:40;;;;;;;;;;;;;;;;;;5026263;28;19925;-58
2022/10/07 11:17:06;;;;;;;;;;;;;;;;;;5027599;28;20367;-57
2022/10/07 11:19:33;;;;;;;;;;;;;;;;;;5025817;28;20007;-58
2022/10/07 11:21:59;;;;;;;;;;;;;;;;;;5024920;28;19964;-57
2022/10/07 11:24:26;;;;;;;;;;;;;;;;;;5025098;28;19921;-58
2022/10/07 11:26:52;;;;;;;;;;;;;;;;;;5025525;28;20023;-58
2022/10/07 11:29:18;;;;;;;;;;;;;;;;;;5023979;28;20070;-58
2022/10/07 11:31:45;;;;;;;;;;;;;;;;;;5024293;28;20015;-58
2022/10/07 11:34:11;;;;;;;;;;;;;;;;;;5024716;28;19932;-58
2022/10/07 11:36:37;;;;;;;;;;;;;;;;;;5007655;28;19931;-58
2022/10/07 11:39:03;;;;;;;;;;;;;;;;;;5028672;28;19921;-58
2022/10/07 11:41:29;;;;;;;;;;;;;;;;;;5028778;28;19925;-57
2022/10/07 11:43:56;;;;;;;;;;;;;;;;;;5027896;28;19925;-58
2022/10/07 11:46:21;;;;;;;;;;;;;;;;;;5028699;28;19932;-57
2022/10/07 11:48:48;;;;;;;;;;;;;;;;;;5027605;28;19921;-58
2022/10/07 11:51:14;;;;;;;;;;;;;;;;;;5027261;28;19921;-57
2022/10/07 11:53:40;;;;;;;;;;;;;;;;;;5030552;28;19957;-58
2022/10/07 11:56:06;;;;;;;;;;;;;;;;;;5030838;28;19956;-57
2022/10/07 11:58:32;;;;;;;;;;;;;;;;;;5029742;28;20014;-57
2022/10/07 12:00:58;;;;;;;;;;;;;;;;;;5030161;28;19999;-58
2022/10/07 12:03:24;;;;;;;;;;;;;;;;;;5031186;28;19921;-58
2022/10/07 12:05:52;;;;;;;;;;;;;;;;;;5030715;28;19975;-57
2022/10/07 12:08:18;;;;;;;;;;;;;;;;;;5030080;28;19920;-58
2022/10/07 12:10:44;;;;;;;;;;;;;;;;;;5030366;28;19924;-57
2022/10/07 12:13:10;;;;;;;;;;;;;;;;;;5029579;28;20631;-58
2022/10/07 12:15:38;;;;;;;;;;;;;;;;;;5029884;28;19975;-57
2022/10/07 12:18:04;;;;;;;;;;;;;;;;;;5029728;28;19929;-58
2022/10/07 12:20:29;;;;;;;;;;;;;;;;;;5030433;28;19921;-57
2022/10/07 12:22:55;;;;;;;;;;;;;;;;;;5011597;28;22253;-58
2022/10/07 12:25:21;;;;;;;;;;;;;;;;;;5030314;28;19921;-58
2022/10/07 12:27:47;;;;;;;;;;;;;;;;;;5028734;28;19921;-57
2022/10/07 12:30:13;;;;;;;;;;;;;;;;;;5029991;28;20420;-57
2022/10/07 12:32:39;;;;;;;;;;;;;;;;;;5030311;28;19928;-56
2022/10/07 12:35:06;;;;;;;;;;;;;;;;;;5030097;28;19925;-56
2022/10/07 12:37:32;;;;;;;;;;;;;;;;;;5030172;28;19932;-59
2022/10/07 12:39:58;;;;;;;;;;;;;;;;;;5030221;28;19928;-57
2022/10/07 12:42:24;;;;;;;;;;;;;;;;;;5023477;28;19928;-57
2022/10/07 12:44:51;;;;;;;;;;;;;;;;;;5027505;28;19925;-57
2022/10/07 12:47:17;;;;;;;;;;;;;;;;;;5026039;28;19940;-57
2022/10/07 12:49:43;;;;;;;;;;;;;;;;;;5026910;28;19921;-56
2022/10/07 12:52:10;;;;;;;;;;;;;;;;;;5027758;28;19932;-57
2022/10/07 12:54:36;;;;;;;;;;;;;;;;;;5027453;28;19990;-57
2022/10/07 12:57:02;;;;;;;;;;;;;;;;;;5027024;28;19925;-55
2022/10/07 12:59:47;;;;;;;;;;;;;;;;;;5008980;28;20290;-58
2022/10/07 13:02:13;;;;;;;;;;;;;;;;;;5026131;28;19932;-56
2022/10/07 13:04:39;;;;;;;;;;;;;;;;;;5027673;28;19936;-56
2022/10/07 13:07:05;;;;;;;;;;;;;;;;;;5027140;28;19929;-56
2022/10/07 13:09:31;;;;;;;;;;;;;;;;;;5027127;28;20020;-56
2022/10/07 13:11:58;;;;;;;;;;;;;;;;;;5027394;28;19925;-55
2022/10/07 13:14:25;;;;;;;;;;;;;;;;;;5026154;28;19964;-57
2022/10/07 13:16:51;;;;;;;;;;;;;;;;;;5026565;28;19921;-56
2022/10/07 13:19:17;;;;;;;;;;;;;;;;;;5025956;28;19932;-57
2022/10/07 13:21:43;;;;;;;;;;;;;;;;;;5026915;28;20667;-56
2022/10/07 13:24:09;;;;;;;;;;;;;;;;;;5024812;28;19929;-57
2022/10/07 13:26:36;;;;;;;;;;;;;;;;;;5026715;28;19967;-56
2022/10/07 13:29:02;;;;;;;;;;;;;;;;;;5025979;28;19995;-57
2022/10/07 13:31:28;;;;;;;;;;;;;;;;;;5026366;28;20363;-56
2022/10/07 13:33:54;;;;;;;;;;;;;;;;;;5026883;28;20374;-56
2022/10/07 13:36:20;;;;;;;;;;;;;;;;;;5024266;28;19951;-57
2022/10/07 13:38:46;;;;;;;;;;;;;;;;;;5026305;28;20310;-56
2022/10/07 13:41:12;;;;;;;;;;;;;;;;;;5024235;28;20661;-57
2022/10/07 13:43:38;;;;;;;;;;;;;;;;;;5025358;28;19921;-56
2022/10/07 13:46:05;;;;;;;;;;;;;;;;;;5025280;28;19944;-57
2022/10/07 13:48:33;;;;;;;;;;;;;;;;;;5027106;28;20685;-57
2022/10/07 13:50:59;;;;;;;;;;;;;;;;;;5026251;28;19988;-58
2022/10/07 13:53:25;;;;;;;;;;;;;;;;;;5008806;28;19921;-57
2022/10/07 13:55:51;;;;;;;;;;;;;;;;;;5026483;28;19925;-57
2022/10/07 13:58:17;;;;;;;;;;;;;;;;;;5018935;28;19940;-57
2022/10/07 14:00:43;;;;;;;;;;;;;;;;;;5025613;28;20020;-56
2022/10/07 14:03:09;;;;;;;;;;;;;;;;;;5026215;28;19925;-56
2022/10/07 14:05:36;;;;;;;;;;;;;;;;;;5026412;28;20306;-56
2022/10/07 14:08:02;;;;;;;;;;;;;;;;;;5025860;28;19925;-56
2022/10/07 14:10:28;;;;;;;;;;;;;;;;;;5026510;28;19975;-56
2022/10/07 14:12:54;;;;;;;;;;;;;;;;;;5025734;28;20315;-56
2022/10/07 14:15:20;;;;;;;;;;;;;;;;;;5026109;28;19928;-56
2022/10/07 14:17:46;;;;;;;;;;;;;;;;;;5025801;28;19929;-57
2022/10/07 14:20:12;;;;;;;;;;;;;;;;;;5025549;28;21321;-57
2022/10/07 14:22:38;;;;;;;;;;;;;;;;;;5026166;28;20000;-57
2022/10/07 14:25:04;;;;;;;;;;;;;;;;;;5026154;28;19925;-57
2022/10/07 14:27:30;;;;;;;;;;;;;;;;;;5025295;28;19921;-57
2022/10/07 14:29:57;;;;;;;;;;;;;;;;;;5026441;28;20436;-57
2022/10/07 14:35:17;;;;;;;;;;;;;;;;;;5025835;28;19983;-53
2022/10/07 14:37:43;;;;;;;;;;;;;;;;;;5025684;28;19928;-56
2022/10/07 14:40:09;;;;;;;;;;;;;;;;;;5025165;28;19921;-57
2022/10/07 14:42:36;;;;;;;;;;;;;;;;;;5024404;28;20546;-57
2022/10/07 14:45:02;;;;;;;;;;;;;;;;;;5024938;28;19963;-56
2022/10/07 14:47:30;;;;;;;;;;;;;;;;;;5024446;28;19925;-57
2022/10/07 14:49:56;;;;;;;;;;;;;;;;;;5025571;28;19931;-57
2022/10/07 14:52:22;;;;;;;;;;;;;;;;;;5024968;28;19925;-56
2022/10/07 14:54:49;;;;;;;;;;;;;;;;;;5024602;28;19975;-56
2022/10/07 14:57:15;;;;;;;;;;;;;;;;;;5024024;28;19931;-57
2022/10/07 14:59:41;;;;;;;;;;;;;;;;;;5022655;28;19928;-56
2022/10/07 15:02:07;;;;;;;;;;;;;;;;;;5024390;28;20360;-57
2022/10/07 15:04:33;;;;;;;;;;;;;;;;;;5024967;28;19932;-56
2022/10/07 15:06:59;;;;;;;;;;;;;;;;;;5024328;28;20011;-55
2022/10/07 15:09:25;;;;;;;;;;;;;;;;;;5026046;28;19924;-57
2022/10/07 15:11:51;;;;;;;;;;;;;;;;;;5023712;28;19943;-57
2022/10/07 15:14:17;;;;;;;;;;;;;;;;;;5024231;28;19972;-57
2022/10/07 15:16:43;;;;;;;;;;;;;;;;;;5024742;28;19971;-56
2022/10/07 15:19:09;;;;;;;;;;;;;;;;;;5024520;28;19943;-56
2022/10/07 15:21:35;;;;;;;;;;;;;;;;;;5024794;28;20359;-57
2022/10/07 15:24:01;;;;;;;;;;;;;;;;;;5021853;28;20347;-56
2022/10/07 15:26:27;;;;;;;;;;;;;;;;;;5024658;28;20008;-58
2022/10/07 15:28:53;;;;;;;;;;;;;;;;;;5024141;28;20363;-56
2022/10/07 15:31:19;;;;;;;;;;;;;;;;;;5024330;28;19927;-56
2022/10/07 15:33:45;;;;;;;;;;;;;;;;;;5024434;28;20330;-56
2022/10/07 15:36:12;;;;;;;;;;;;;;;;;;5024286;28;19928;-57
2022/10/07 15:38:39;;;;;;;;;;;;;;;;;;5024172;28;20436;-57
2022/10/07 15:41:05;;;;;;;;;;;;;;;;;;5024241;28;19971;-57
2022/10/07 15:43:31;;;;;;;;;;;;;;;;;;5023519;28;19928;-57
2022/10/07 15:46:00;;;;;;;;;;;;;;;;;;5024244;28;19975;-57
2022/10/07 15:48:27;;;;;;;;;;;;;;;;;;5023962;28;20008;-57
2022/10/07 15:50:53;;;;;;;;;;;;;;;;;;5022708;28;20025;-57
2022/10/07 15:53:20;;;;;;;;;;;;;;;;;;5020696;28;19920;-57
2022/10/07 15:55:46;;;;;;;;;;;;;;;;;;5024123;28;19928;-57
2022/10/07 15:58:12;;;;;;;;;;;;;;;;;;5023052;28;20632;-56
2022/10/07 16:00:38;;;;;;;;;;;;;;;;;;5024627;28;19932;-57
2022/10/07 16:03:04;;;;;;;;;;;;;;;;;;5024162;28;20016;-57
2022/10/07 16:05:30;;;;;;;;;;;;;;;;;;5024065;28;19925;-57
2022/10/07 16:07:56;;;;;;;;;;;;;;;;;;5024460;28;19924;-58
2022/10/07 16:10:22;;;;;;;;;;;;;;;;;;5024766;28;19979;-57
2022/10/07 16:12:48;;;;;;;;;;;;;;;;;;5022755;28;20368;-57
2022/10/07 16:15:15;;;;;;;;;;;;;;;;;;5023880;28;19931;-57
2022/10/07 16:17:41;;;;;;;;;;;;;;;;;;5023917;28;20589;-57
2022/10/07 16:20:08;;;;;;;;;;;;;;;;;;5022942;28;19933;-56
2022/10/07 16:22:33;;;;;;;;;;;;;;;;;;5022044;28;20390;-56
2022/10/07 16:24:59;;;;;;;;;;;;;;;;;;5027510;28;19931;-57
2022/10/07 16:30:39;;;;;;;;;;;;;;;;;;5026756;28;19933;-57
2022/10/07 16:32:56;;;;;;;;;;;;;;;;;;5007939;28;20405;-58
2022/10/07 16:35:22;;;;;;;;;;;;;;;;;;5028056;28;20327;-57
2022/10/07 16:37:48;;;;;;;;;;;;;;;;;;5026526;28;19932;-57
2022/10/07 16:40:14;;;;;;;;;;;;;;;;;;5027456;28;19932;-56
2022/10/07 16:42:40;;;;;;;;;;;;;;;;;;5026719;28;19925;-57
2022/10/07 16:45:06;;;;;;;;;;;;;;;;;;5027332;28;19936;-56
2022/10/07 16:47:32;;;;;;;;;;;;;;;;;;5027136;28;19925;-57
2022/10/07 16:49:58;;;;;;;;;;;;;;;;;;5026665;28;19932;-57
2022/10/07 16:52:25;;;;;;;;;;;;;;;;;;5027197;28;20022;-55
2022/10/07 16:54:51;;;;;;;;;;;;;;;;;;5026845;28;19925;-56